createdAt,value
2019-03-09T00:00:32.149Z,85.19
2019-03-09T00:01:37.533Z,85.20
2019-03-09T00:02:43.102Z,85.27
2019-03-09T00:03:48.722Z,85.32
2019-03-09T00:04:54.327Z,86.15
2019-03-09T00:05:59.950Z,86.51
2019-03-09T00:07:05.553Z,86.25
2019-03-09T00:08:11.112Z,85.97
2019-03-09T00:09:16.707Z,85.49
2019-03-09T00:10:22.282Z,86.30
2019-03-09T00:11:27.877Z,86.00
2019-03-09T00:12:33.542Z,85.82
2019-03-09T00:13:40.994Z,86.34
2019-03-09T00:14:44.740Z,86.10
2019-03-09T00:15:50.324Z,85.68
2019-03-09T00:16:55.953Z,85.73
2019-03-09T00:18:01.554Z,85.47
2019-03-09T00:19:06.823Z,86.42
2019-03-09T00:20:12.053Z,86.20
2019-03-09T00:21:17.641Z,85.91
2019-03-09T00:22:23.271Z,86.51
2019-03-09T00:23:34.315Z,86.95
2019-03-09T00:24:40.014Z,86.72
2019-03-09T00:25:50.944Z,87.36
2019-03-09T00:26:56.692Z,87.68
2019-03-09T00:28:02.078Z,88.39
2019-03-09T00:29:07.794Z,88.65
2019-03-09T00:30:22.388Z,87.81
2019-03-09T00:31:31.527Z,87.99
2019-03-09T00:32:37.111Z,87.60
2019-03-09T00:33:42.675Z,86.71
2019-03-09T00:34:48.283Z,86.75
2019-03-09T00:35:53.864Z,86.41
2019-03-09T00:36:59.493Z,86.62
2019-03-09T00:38:05.080Z,86.40
2019-03-09T00:39:10.317Z,87.16
2019-03-09T00:40:15.209Z,87.84
2019-03-09T00:41:20.786Z,87.55
2019-03-09T00:42:26.417Z,87.21
2019-03-09T00:43:31.978Z,86.55
2019-03-09T00:44:37.580Z,86.65
2019-03-09T00:45:43.196Z,86.54
2019-03-09T00:46:48.817Z,86.66
2019-03-09T00:47:54.452Z,86.80
2019-03-09T00:49:00.782Z,87.10
2019-03-09T00:50:05.656Z,86.81
2019-03-09T00:51:11.259Z,86.71
2019-03-09T00:52:16.855Z,86.61
2019-03-09T00:53:22.453Z,86.77
2019-03-09T00:54:27.987Z,86.05
2019-03-09T00:55:33.665Z,86.76
2019-03-09T00:56:39.251Z,86.62
2019-03-09T00:57:44.865Z,85.81
2019-03-09T00:58:50.453Z,85.43
2019-03-09T00:59:55.321Z,85.46
2019-03-09T01:01:00.594Z,85.38
2019-03-09T01:02:05.861Z,85.67
2019-03-09T01:03:11.423Z,86.53
2019-03-09T01:04:16.677Z,85.57
2019-03-09T01:05:21.575Z,86.11
2019-03-09T01:06:27.183Z,86.87
2019-03-09T01:07:33.247Z,87.63
2019-03-09T01:08:38.840Z,87.45
2019-03-09T01:09:44.409Z,87.43
2019-03-09T01:10:49.635Z,87.06
2019-03-09T01:11:55.200Z,86.85
2019-03-09T01:13:00.497Z,86.02
2019-03-09T01:14:05.397Z,86.64
2019-03-09T01:15:10.284Z,86.39
2019-03-09T01:16:15.884Z,87.17
2019-03-09T01:17:21.521Z,87.34
2019-03-09T01:18:27.129Z,87.26
2019-03-09T01:19:32.707Z,86.93
2019-03-09T01:20:38.249Z,87.05
2019-03-09T01:21:43.810Z,86.04
2019-03-09T01:22:49.447Z,86.78
2019-03-09T01:23:55.032Z,86.83
2019-03-09T01:25:00.634Z,85.42
2019-03-09T01:26:05.896Z,84.85
2019-03-09T01:27:11.124Z,84.10
2019-03-09T01:28:16.709Z,84.91
2019-03-09T01:29:22.292Z,84.86
2019-03-09T01:30:27.636Z,86.30
2019-03-09T01:31:33.195Z,86.77
2019-03-09T01:32:38.782Z,87.15
2019-03-09T01:33:44.381Z,86.93
2019-03-09T01:34:49.651Z,86.31
2019-03-09T01:35:55.220Z,85.17
2019-03-09T01:37:00.823Z,84.83
2019-03-09T01:38:06.416Z,84.21
2019-03-09T01:39:11.999Z,84.14
2019-03-09T01:40:16.916Z,84.96
2019-03-09T01:41:22.151Z,85.13
2019-03-09T01:42:27.790Z,84.57
2019-03-09T01:43:33.425Z,84.44
2019-03-09T01:44:38.992Z,84.10
2019-03-09T01:45:44.579Z,84.19
2019-03-09T01:46:50.144Z,83.86
2019-03-09T01:47:55.778Z,84.12
2019-03-09T01:49:01.344Z,85.20
2019-03-09T01:50:06.250Z,85.20
2019-03-09T01:51:11.880Z,83.95
2019-03-09T01:52:17.464Z,84.32
2019-03-09T01:53:23.081Z,85.61
2019-03-09T01:54:28.718Z,85.98
2019-03-09T01:55:33.945Z,86.16
2019-03-09T01:56:39.501Z,85.68
2019-03-09T01:57:45.105Z,85.49
2019-03-09T01:58:50.741Z,85.44
2019-03-09T01:59:56.304Z,85.50
2019-03-09T02:01:01.871Z,84.81
2019-03-09T02:02:07.436Z,83.96
2019-03-09T02:03:13.068Z,84.73
2019-03-09T02:04:18.710Z,84.46
2019-03-09T02:05:23.963Z,83.84
2019-03-09T02:06:29.563Z,83.68
2019-03-09T02:07:34.820Z,84.00
2019-03-09T02:08:40.063Z,84.47
2019-03-09T02:09:45.642Z,83.95
2019-03-09T02:10:50.842Z,84.32
2019-03-09T02:11:56.390Z,84.53
2019-03-09T02:13:01.692Z,84.78
2019-03-09T02:14:06.585Z,84.17
2019-03-09T02:15:12.767Z,83.91
2019-03-09T02:16:18.601Z,83.67
2019-03-09T02:17:24.189Z,83.73
2019-03-09T02:18:29.855Z,83.19
2019-03-09T02:19:35.585Z,82.76
2019-03-09T02:20:40.843Z,82.87
2019-03-09T02:21:46.431Z,82.34
2019-03-09T02:22:52.018Z,82.08
2019-03-09T02:23:57.596Z,81.99
2019-03-09T02:25:02.836Z,81.63
2019-03-09T02:26:08.458Z,81.99
2019-03-09T02:27:13.680Z,81.77
2019-03-09T02:28:19.287Z,81.53
2019-03-09T02:29:24.862Z,81.55
2019-03-09T02:30:30.419Z,81.47
2019-03-09T02:31:35.965Z,81.60
2019-03-09T02:32:41.796Z,81.57
2019-03-09T02:33:47.422Z,81.13
2019-03-09T02:34:53.055Z,80.68
2019-03-09T02:35:58.631Z,80.53
2019-03-09T02:37:03.883Z,80.98
2019-03-09T02:38:09.279Z,80.58
2019-03-09T02:39:30.071Z,80.07
2019-03-09T02:40:35.613Z,80.80
2019-03-09T02:41:41.204Z,80.94
2019-03-09T02:42:46.434Z,80.94
2019-03-09T02:43:52.078Z,80.29
2019-03-09T02:44:57.647Z,80.61
2019-03-09T02:46:03.214Z,79.86
2019-03-09T02:47:08.863Z,79.78
2019-03-09T02:48:14.479Z,79.38
2019-03-09T02:49:20.055Z,78.79
2019-03-09T02:50:25.646Z,78.90
2019-03-09T02:51:31.241Z,79.34
2019-03-09T02:52:36.816Z,79.26
2019-03-09T02:53:42.447Z,79.11
2019-03-09T02:54:48.076Z,78.54
2019-03-09T02:55:53.287Z,78.36
2019-03-09T02:56:58.878Z,78.12
2019-03-09T02:58:04.511Z,77.88
2019-03-09T02:59:10.100Z,77.68
2019-03-09T03:00:16.740Z,78.01
2019-03-09T03:01:22.130Z,77.69
2019-03-09T03:02:28.369Z,77.71
2019-03-09T03:03:33.946Z,77.61
2019-03-09T03:04:39.547Z,77.46
2019-03-09T03:05:45.123Z,77.20
2019-03-09T03:06:50.721Z,76.58
2019-03-09T03:07:56.277Z,77.06
2019-03-09T03:09:01.877Z,76.76
2019-03-09T03:10:06.834Z,76.57
2019-03-09T03:11:12.416Z,76.37
2019-03-09T03:12:18.016Z,75.92
2019-03-09T03:13:23.573Z,75.85
2019-03-09T03:14:29.189Z,75.54
2019-03-09T03:15:36.687Z,75.67
2019-03-09T03:16:42.294Z,76.57
2019-03-09T03:17:47.890Z,76.87
2019-03-09T03:18:53.506Z,76.89
2019-03-09T03:19:59.095Z,77.08
2019-03-09T03:21:05.260Z,76.63
2019-03-09T03:22:10.867Z,76.56
2019-03-09T03:23:16.414Z,76.51
2019-03-09T03:24:22.022Z,76.81
2019-03-09T03:25:27.249Z,76.57
2019-03-09T03:26:32.852Z,76.67
2019-03-09T03:27:38.497Z,76.50
2019-03-09T03:28:44.083Z,76.90
2019-03-09T03:29:49.742Z,76.86
2019-03-09T03:30:54.944Z,76.58
2019-03-09T03:32:00.554Z,76.63
2019-03-09T03:33:06.166Z,76.58
2019-03-09T03:34:11.765Z,76.34
2019-03-09T03:35:17.627Z,76.40
2019-03-09T03:36:23.189Z,76.65
2019-03-09T03:37:28.770Z,76.90
2019-03-09T03:38:34.381Z,76.89
2019-03-09T03:39:39.945Z,76.51
2019-03-09T03:40:45.522Z,76.88
2019-03-09T03:41:51.126Z,76.67
2019-03-09T03:42:56.748Z,76.82
2019-03-09T03:44:02.023Z,76.30
2019-03-09T03:45:07.751Z,76.56
2019-03-09T03:46:13.363Z,76.55
2019-03-09T03:47:18.924Z,77.09
2019-03-09T03:48:24.469Z,77.03
2019-03-09T03:49:30.063Z,77.49
2019-03-09T03:50:35.634Z,77.71
2019-03-09T03:51:41.222Z,77.74
2019-03-09T03:52:46.802Z,77.38
2019-03-09T03:53:52.372Z,77.09
2019-03-09T03:54:57.997Z,77.47
2019-03-09T03:56:02.945Z,77.78
2019-03-09T03:57:08.559Z,77.47
2019-03-09T03:58:13.746Z,76.72
2019-03-09T03:59:19.347Z,76.68
2019-03-09T04:00:25.748Z,76.94
2019-03-09T04:01:30.651Z,77.79
2019-03-09T04:02:36.241Z,77.06
2019-03-09T04:03:41.524Z,76.90
2019-03-09T04:04:46.757Z,76.17
2019-03-09T04:05:52.034Z,76.47
2019-03-09T04:06:56.935Z,76.37
2019-03-09T04:08:02.224Z,76.33
2019-03-09T04:09:07.104Z,76.20
2019-03-09T04:10:12.069Z,76.58
2019-03-09T04:11:16.972Z,76.82
2019-03-09T04:12:22.222Z,77.40
2019-03-09T04:13:27.843Z,76.33
2019-03-09T04:14:33.523Z,76.34
2019-03-09T04:15:38.826Z,75.92
2019-03-09T04:16:44.397Z,75.89
2019-03-09T04:17:49.961Z,75.36
2019-03-09T04:18:55.561Z,75.52
2019-03-09T04:20:01.180Z,75.68
2019-03-09T04:21:06.846Z,76.12
2019-03-09T04:22:12.443Z,76.08
2019-03-09T04:23:18.058Z,75.80
2019-03-09T04:24:23.623Z,75.77
2019-03-09T04:25:28.890Z,75.87
2019-03-09T04:26:34.099Z,75.99
2019-03-09T04:27:39.324Z,75.76
2019-03-09T04:28:44.543Z,76.30
2019-03-09T04:29:50.152Z,76.01
2019-03-09T04:30:55.738Z,76.26
2019-03-09T04:32:01.290Z,76.87
2019-03-09T04:33:06.896Z,76.25
2019-03-09T04:34:12.493Z,76.19
2019-03-09T04:35:18.075Z,76.64
2019-03-09T04:36:23.300Z,77.02
2019-03-09T04:37:28.872Z,76.66
2019-03-09T04:38:34.468Z,77.16
2019-03-09T04:39:40.106Z,76.68
2019-03-09T04:40:45.778Z,76.39
2019-03-09T04:41:53.235Z,77.44
2019-03-09T04:42:58.796Z,77.50
2019-03-09T04:44:04.360Z,77.25
2019-03-09T04:45:09.290Z,76.75
2019-03-09T04:46:14.892Z,77.34
2019-03-09T04:47:20.430Z,77.35
2019-03-09T04:48:25.978Z,77.16
2019-03-09T04:49:31.531Z,77.13
2019-03-09T04:50:37.108Z,76.95
2019-03-09T04:51:42.728Z,77.87
2019-03-09T04:52:48.313Z,77.36
2019-03-09T04:53:53.907Z,77.02
2019-03-09T04:54:59.542Z,77.26
2019-03-09T04:56:04.820Z,77.35
2019-03-09T04:57:10.399Z,78.39
2019-03-09T04:58:15.949Z,78.86
2019-03-09T04:59:21.542Z,79.52
2019-03-09T05:00:27.143Z,80.27
2019-03-09T05:01:32.743Z,80.40
2019-03-09T05:02:38.347Z,80.65
2019-03-09T05:03:43.927Z,81.01
2019-03-09T05:04:49.259Z,81.49
2019-03-09T05:05:55.126Z,81.62
2019-03-09T05:07:01.070Z,82.08
2019-03-09T05:08:06.660Z,81.74
2019-03-09T05:09:15.482Z,82.45
2019-03-09T05:10:22.761Z,82.90
2019-03-09T05:11:28.328Z,83.67
2019-03-09T05:12:33.970Z,83.04
2019-03-09T05:13:39.172Z,83.48
2019-03-09T05:14:45.001Z,84.17
2019-03-09T05:15:50.692Z,84.96
2019-03-09T05:16:56.332Z,84.14
2019-03-09T05:18:01.955Z,84.00
2019-03-09T05:19:07.583Z,84.13
2019-03-09T05:20:12.915Z,84.14
2019-03-09T05:21:18.707Z,84.41
2019-03-09T05:22:24.317Z,83.11
2019-03-09T05:23:30.051Z,83.05
2019-03-09T05:24:35.699Z,83.29
2019-03-09T05:25:41.336Z,83.65
2019-03-09T05:26:46.979Z,84.24
2019-03-09T05:27:52.407Z,84.28
2019-03-09T05:28:58.037Z,84.15
2019-03-09T05:30:03.307Z,84.24
2019-03-09T05:31:08.951Z,83.87
2019-03-09T05:32:14.550Z,84.12
2019-03-09T05:33:20.112Z,84.74
2019-03-09T05:34:25.743Z,84.43
2019-03-09T05:35:31.537Z,83.78
2019-03-09T05:36:37.091Z,84.24
2019-03-09T05:37:43.471Z,85.06
2019-03-09T05:38:48.363Z,84.39
2019-03-09T05:39:54.399Z,84.73
2019-03-09T05:41:00.233Z,84.63
2019-03-09T05:42:05.827Z,84.88
2019-03-09T05:43:11.454Z,85.46
2019-03-09T05:44:17.355Z,85.32
2019-03-09T05:45:23.125Z,86.21
2019-03-09T05:46:28.736Z,86.68
2019-03-09T05:47:34.322Z,87.37
2019-03-09T05:48:39.920Z,88.27
2019-03-09T05:49:45.566Z,87.76
2019-03-09T05:50:51.157Z,88.13
2019-03-09T05:52:08.089Z,88.04
2019-03-09T05:53:16.784Z,87.95
2019-03-09T05:54:22.394Z,89.24
2019-03-09T05:55:28.038Z,90.33
2019-03-09T05:56:33.755Z,90.86
2019-03-09T05:57:39.327Z,90.95
2019-03-09T05:58:44.944Z,91.66
2019-03-09T05:59:50.699Z,92.25
2019-03-09T06:00:56.350Z,92.15
2019-03-09T06:02:02.084Z,92.40
2019-03-09T06:03:07.547Z,92.33
2019-03-09T06:04:13.347Z,91.86
2019-03-09T06:05:27.240Z,92.23
2019-03-09T06:06:32.842Z,92.16
2019-03-09T06:07:38.592Z,92.15
2019-03-09T06:08:43.968Z,92.69
2019-03-09T06:09:50.805Z,93.42
2019-03-09T06:10:56.561Z,94.52
2019-03-09T06:12:02.165Z,94.83
2019-03-09T06:13:07.588Z,94.93
2019-03-09T06:14:13.179Z,94.56
2019-03-09T06:15:18.914Z,94.41
2019-03-09T06:16:24.739Z,94.43
2019-03-09T06:17:30.409Z,94.49
2019-03-09T06:18:36.139Z,94.72
2019-03-09T06:19:41.714Z,94.55
2019-03-09T06:20:48.461Z,94.28
2019-03-09T06:21:54.219Z,93.75
2019-03-09T06:22:59.914Z,93.98
2019-03-09T06:24:05.611Z,93.67
2019-03-09T06:25:11.310Z,93.59
2019-03-09T06:26:18.045Z,93.84
2019-03-09T06:27:23.691Z,93.74
2019-03-09T06:28:29.472Z,94.13
2019-03-09T06:29:35.103Z,93.27
2019-03-09T06:30:40.575Z,93.62
2019-03-09T06:31:57.589Z,93.95
2019-03-09T06:33:15.696Z,94.13
2019-03-09T06:34:21.312Z,94.13
2019-03-09T06:35:27.246Z,93.94
2019-03-09T06:36:34.686Z,93.66
2019-03-09T06:37:39.970Z,94.11
2019-03-09T06:38:59.786Z,94.25
2019-03-09T06:40:04.720Z,94.32
2019-03-09T06:41:09.933Z,94.51
2019-03-09T06:42:25.080Z,94.85
2019-03-09T06:43:30.714Z,94.60
2019-03-09T06:44:36.929Z,94.33
2019-03-09T06:45:42.525Z,94.52
2019-03-09T06:46:50.032Z,94.10
2019-03-09T06:47:53.747Z,94.33
2019-03-09T06:48:59.339Z,94.66
2019-03-09T06:50:04.195Z,94.28
2019-03-09T06:51:09.793Z,94.53
2019-03-09T06:52:15.353Z,94.57
2019-03-09T06:53:20.923Z,94.46
2019-03-09T06:54:26.481Z,94.68
2019-03-09T06:55:32.098Z,95.31
2019-03-09T06:56:37.688Z,95.93
2019-03-09T06:57:43.299Z,96.32
2019-03-09T06:58:48.875Z,96.35
2019-03-09T06:59:54.460Z,96.61
2019-03-09T07:00:59.455Z,95.79
2019-03-09T07:02:04.664Z,95.44
2019-03-09T07:03:10.284Z,95.22
2019-03-09T07:04:15.895Z,95.36
2019-03-09T07:05:21.523Z,95.67
2019-03-09T07:06:27.103Z,95.65
2019-03-09T07:07:32.685Z,95.72
2019-03-09T07:08:39.496Z,95.83
2019-03-09T07:09:43.880Z,95.51
2019-03-09T07:10:49.502Z,95.65
2019-03-09T07:11:55.141Z,95.12
2019-03-09T07:13:00.701Z,94.51
2019-03-09T07:14:17.256Z,95.02
2019-03-09T07:15:25.652Z,95.58
2019-03-09T07:16:31.285Z,95.67
2019-03-09T07:17:36.889Z,94.68
2019-03-09T07:18:41.776Z,94.82
2019-03-09T07:19:47.363Z,94.91
2019-03-09T07:20:52.959Z,95.68
2019-03-09T07:21:58.578Z,95.65
2019-03-09T07:23:04.173Z,95.27
2019-03-09T07:24:09.762Z,95.55
2019-03-09T07:25:15.058Z,95.80
2019-03-09T07:26:20.672Z,95.23
2019-03-09T07:27:26.253Z,94.85
2019-03-09T07:28:31.858Z,94.27
2019-03-09T07:29:37.430Z,94.30
2019-03-09T07:30:43.187Z,94.41
2019-03-09T07:31:48.755Z,94.09
2019-03-09T07:32:54.304Z,93.11
2019-03-09T07:34:23.863Z,92.40
2019-03-09T07:35:29.472Z,92.27
2019-03-09T07:36:35.115Z,92.28
2019-03-09T07:37:40.708Z,91.87
2019-03-09T07:38:46.252Z,91.78
2019-03-09T07:39:51.879Z,91.90
2019-03-09T07:40:57.456Z,92.00
2019-03-09T07:42:03.106Z,91.37
2019-03-09T07:43:08.719Z,90.74
2019-03-09T07:44:14.330Z,89.91
2019-03-09T07:45:19.901Z,90.28
2019-03-09T07:46:25.466Z,90.44
2019-03-09T07:47:31.063Z,89.85
2019-03-09T07:48:36.650Z,89.49
2019-03-09T07:49:42.230Z,89.73
2019-03-09T07:50:47.478Z,90.06
2019-03-09T07:51:53.062Z,90.12
2019-03-09T07:52:58.620Z,89.95
2019-03-09T07:54:04.249Z,89.13
2019-03-09T07:55:09.122Z,88.72
2019-03-09T07:56:14.688Z,88.68
2019-03-09T07:57:20.295Z,88.93
2019-03-09T07:58:25.877Z,88.95
2019-03-09T07:59:31.431Z,89.26
2019-03-09T08:00:36.652Z,88.66
2019-03-09T08:01:42.298Z,88.78
2019-03-09T08:02:47.185Z,89.04
2019-03-09T08:03:52.764Z,89.58
2019-03-09T08:04:58.017Z,89.25
2019-03-09T08:06:03.600Z,88.96
2019-03-09T08:07:09.256Z,88.79
2019-03-09T08:08:14.862Z,88.48
2019-03-09T08:09:20.419Z,88.35
2019-03-09T08:10:25.992Z,87.88
2019-03-09T08:11:31.644Z,88.52
2019-03-09T08:12:36.905Z,88.43
2019-03-09T08:13:42.489Z,88.80
2019-03-09T08:14:48.112Z,88.94
2019-03-09T08:15:53.744Z,88.42
2019-03-09T08:16:59.365Z,88.16
2019-03-09T08:18:04.257Z,87.59
2019-03-09T08:19:09.837Z,87.85
2019-03-09T08:20:15.566Z,87.42
2019-03-09T08:21:21.219Z,87.50
2019-03-09T08:22:26.869Z,87.45
2019-03-09T08:23:32.519Z,87.67
2019-03-09T08:24:38.105Z,87.94
2019-03-09T08:25:43.717Z,86.83
2019-03-09T08:26:49.400Z,86.14
2019-03-09T08:27:55.053Z,85.64
2019-03-09T08:29:00.676Z,85.98
2019-03-09T08:30:05.604Z,86.46
2019-03-09T08:31:11.238Z,86.60
2019-03-09T08:32:16.895Z,85.86
2019-03-09T08:33:22.541Z,85.93
2019-03-09T08:34:28.164Z,86.43
2019-03-09T08:35:33.795Z,86.29
2019-03-09T08:36:39.454Z,86.45
2019-03-09T08:37:44.376Z,86.45
2019-03-09T08:38:49.990Z,86.99
2019-03-09T08:39:55.657Z,85.65
2019-03-09T08:41:01.562Z,85.13
2019-03-09T08:42:07.423Z,84.16
2019-03-09T08:43:13.047Z,83.29
2019-03-09T08:44:18.647Z,82.60
2019-03-09T08:45:24.309Z,82.61
2019-03-09T08:46:29.918Z,83.37
2019-03-09T08:47:35.792Z,82.06
2019-03-09T08:48:41.401Z,81.67
2019-03-09T08:49:47.199Z,81.02
2019-03-09T08:50:52.912Z,80.75
2019-03-09T08:51:58.538Z,80.44
2019-03-09T08:53:03.972Z,80.12
2019-03-09T08:54:09.715Z,80.93
2019-03-09T08:55:14.867Z,81.14
2019-03-09T08:56:20.556Z,80.86
2019-03-09T08:57:26.221Z,80.82
2019-03-09T08:58:31.984Z,79.81
2019-03-09T08:59:37.743Z,79.30
2019-03-09T09:00:43.446Z,79.93
2019-03-09T09:01:49.370Z,80.23
2019-03-09T09:02:55.074Z,80.57
2019-03-09T09:04:02.146Z,80.44
2019-03-09T09:05:07.711Z,79.88
2019-03-09T09:06:13.468Z,79.30
2019-03-09T09:07:19.291Z,78.52
2019-03-09T09:08:25.076Z,78.87
2019-03-09T09:09:30.760Z,78.98
2019-03-09T09:10:36.408Z,79.71
2019-03-09T09:11:42.060Z,79.50
2019-03-09T09:12:47.750Z,80.09
2019-03-09T09:13:53.384Z,80.39
2019-03-09T09:14:58.936Z,80.19
2019-03-09T09:16:04.564Z,79.82
2019-03-09T09:17:10.197Z,80.09
2019-03-09T09:18:15.827Z,79.92
2019-03-09T09:19:21.391Z,79.54
2019-03-09T09:20:26.391Z,79.06
2019-03-09T09:21:32.042Z,78.70
2019-03-09T09:22:37.654Z,79.13
2019-03-09T09:23:43.312Z,79.29
2019-03-09T09:24:48.914Z,79.86
2019-03-09T09:25:54.483Z,79.35
2019-03-09T09:27:00.071Z,78.36
2019-03-09T09:28:05.023Z,78.77
2019-03-09T09:29:10.696Z,78.08
2019-03-09T09:30:18.778Z,77.86
2019-03-09T09:31:24.418Z,77.30
2019-03-09T09:32:29.667Z,77.44
2019-03-09T09:33:35.280Z,77.48
2019-03-09T09:34:40.891Z,77.25
2019-03-09T09:35:46.167Z,75.69
2019-03-09T09:36:51.802Z,75.78
2019-03-09T09:37:57.638Z,75.99
2019-03-09T09:39:02.636Z,74.15
2019-03-09T09:40:23.056Z,74.73
2019-03-09T09:41:28.685Z,73.38
2019-03-09T09:42:34.305Z,73.46
2019-03-09T09:43:39.931Z,73.44
2019-03-09T09:44:45.478Z,71.95
2019-03-09T09:45:51.082Z,70.38
2019-03-09T09:46:56.708Z,69.90
2019-03-09T09:48:02.353Z,70.81
2019-03-09T09:49:08.022Z,70.56
2019-03-09T09:50:13.568Z,71.69
2019-03-09T09:51:19.174Z,71.08
2019-03-09T09:52:24.775Z,70.93
2019-03-09T09:53:30.398Z,69.83
2019-03-09T09:54:36.018Z,68.44
2019-03-09T09:55:41.664Z,68.89
2019-03-09T09:56:47.274Z,69.53
2019-03-09T09:57:52.858Z,69.44
2019-03-09T09:58:58.533Z,69.72
2019-03-09T10:00:03.488Z,69.83
2019-03-09T10:01:09.063Z,69.32
2019-03-09T10:02:14.701Z,69.27
2019-03-09T10:03:20.352Z,69.11
2019-03-09T10:04:25.967Z,69.56
2019-03-09T10:05:31.261Z,68.41
2019-03-09T10:06:36.859Z,68.40
2019-03-09T10:07:42.392Z,69.45
2019-03-09T10:08:48.069Z,69.12
2019-03-09T10:09:53.709Z,68.62
2019-03-09T10:10:59.295Z,68.45
2019-03-09T10:12:04.560Z,68.03
2019-03-09T10:13:10.189Z,67.48
2019-03-09T10:14:15.819Z,67.92
2019-03-09T10:15:23.605Z,67.94
2019-03-09T10:16:28.831Z,68.63
2019-03-09T10:17:34.418Z,67.95
2019-03-09T10:18:40.148Z,67.82
2019-03-09T10:19:45.717Z,67.36
2019-03-09T10:20:51.326Z,67.39
2019-03-09T10:21:56.554Z,67.61
2019-03-09T10:23:04.594Z,68.27
2019-03-09T10:24:07.824Z,68.48
2019-03-09T10:25:12.721Z,66.62
2019-03-09T10:26:18.328Z,66.33
2019-03-09T10:27:23.918Z,66.62
2019-03-09T10:28:29.607Z,66.45
2019-03-09T10:29:35.211Z,65.80
2019-03-09T10:30:40.803Z,66.29
2019-03-09T10:31:46.424Z,66.63
2019-03-09T10:32:51.311Z,66.16
2019-03-09T10:33:56.915Z,65.76
2019-03-09T10:35:02.538Z,65.70
2019-03-09T10:36:08.219Z,65.33
2019-03-09T10:37:13.885Z,65.24
2019-03-09T10:38:19.127Z,64.98
2019-03-09T10:39:24.771Z,64.69
2019-03-09T10:40:30.422Z,65.07
2019-03-09T10:41:36.160Z,64.55
2019-03-09T10:42:41.897Z,64.67
2019-03-09T10:43:47.722Z,64.83
2019-03-09T10:44:54.289Z,63.93
2019-03-09T10:46:00.030Z,64.18
2019-03-09T10:47:05.279Z,63.85
2019-03-09T10:48:10.887Z,63.73
2019-03-09T10:49:16.548Z,64.14
2019-03-09T10:50:22.361Z,63.35
2019-03-09T10:51:28.086Z,62.82
2019-03-09T10:52:33.890Z,62.39
2019-03-09T10:53:39.574Z,62.63
2019-03-09T10:54:45.334Z,62.68
2019-03-09T10:55:50.970Z,63.28
2019-03-09T10:56:56.610Z,62.62
2019-03-09T10:58:02.286Z,62.01
2019-03-09T10:59:07.691Z,61.59
2019-03-09T11:00:20.093Z,61.32
2019-03-09T11:01:25.913Z,61.72
2019-03-09T11:02:31.574Z,62.15
2019-03-09T11:03:37.262Z,61.97
2019-03-09T11:04:43.058Z,62.09
2019-03-09T11:05:47.997Z,61.51
2019-03-09T11:06:53.663Z,61.46
2019-03-09T11:07:58.786Z,61.38
2019-03-09T11:09:03.636Z,60.94
2019-03-09T11:10:08.573Z,60.88
2019-03-09T11:11:14.344Z,60.21
2019-03-09T11:12:20.132Z,60.34
2019-03-09T11:13:26.296Z,60.68
2019-03-09T11:14:31.940Z,61.33
2019-03-09T11:15:38.422Z,61.29
2019-03-09T11:16:44.199Z,60.56
2019-03-09T11:17:49.492Z,61.54
2019-03-09T11:18:55.215Z,61.55
2019-03-09T11:20:00.940Z,61.41
2019-03-09T11:21:06.686Z,61.79
2019-03-09T11:22:12.291Z,62.17
2019-03-09T11:23:18.081Z,61.80
2019-03-09T11:24:23.736Z,62.30
2019-03-09T11:25:29.395Z,61.71
2019-03-09T11:26:35.143Z,61.62
2019-03-09T11:27:40.472Z,62.00
2019-03-09T11:28:46.080Z,61.14
2019-03-09T11:29:51.722Z,61.53
2019-03-09T11:30:57.320Z,61.82
2019-03-09T11:32:02.951Z,62.24
2019-03-09T11:33:08.205Z,62.13
2019-03-09T11:34:13.757Z,62.34
2019-03-09T11:35:19.364Z,62.49
2019-03-09T11:36:24.941Z,62.22
2019-03-09T11:37:30.510Z,62.87
2019-03-09T11:38:36.130Z,62.09
2019-03-09T11:39:41.738Z,61.17
2019-03-09T11:40:57.043Z,60.95
2019-03-09T11:41:52.909Z,61.06
2019-03-09T11:42:58.523Z,60.81
2019-03-09T11:44:04.112Z,61.47
2019-03-09T11:45:14.473Z,61.97
2019-03-09T11:46:20.058Z,61.98
2019-03-09T11:47:25.690Z,61.34
2019-03-09T11:48:30.911Z,61.31
2019-03-09T11:49:36.530Z,61.48
2019-03-09T11:50:42.167Z,61.65
2019-03-09T11:51:47.761Z,61.25
2019-03-09T11:52:53.394Z,60.81
2019-03-09T11:53:59.062Z,60.93
2019-03-09T11:55:04.019Z,61.04
2019-03-09T11:56:09.666Z,61.17
2019-03-09T11:57:15.253Z,61.63
2019-03-09T11:58:20.848Z,61.12
2019-03-09T11:59:26.441Z,60.72
2019-03-09T12:00:32.390Z,60.84
2019-03-09T12:01:38.011Z,60.91
2019-03-09T12:02:43.748Z,60.98
2019-03-09T12:03:49.367Z,61.07
2019-03-09T12:04:54.971Z,61.03
2019-03-09T12:06:00.619Z,60.24
2019-03-09T12:07:06.229Z,60.97
2019-03-09T12:08:11.488Z,61.38
2019-03-09T12:09:17.137Z,61.62
2019-03-09T12:10:22.075Z,63.30
2019-03-09T12:11:27.680Z,64.20
2019-03-09T12:12:33.307Z,65.08
2019-03-09T12:13:38.912Z,66.00
2019-03-09T12:14:44.659Z,66.15
2019-03-09T12:15:50.365Z,66.29
2019-03-09T12:16:56.339Z,66.17
2019-03-09T12:18:02.160Z,66.36
2019-03-09T12:19:07.800Z,66.14
2019-03-09T12:20:12.528Z,66.26
2019-03-09T12:21:18.122Z,66.80
2019-03-09T12:22:23.709Z,66.79
2019-03-09T12:23:29.340Z,66.18
2019-03-09T12:24:34.953Z,65.59
2019-03-09T12:25:40.568Z,65.26
2019-03-09T12:26:46.267Z,65.14
2019-03-09T12:27:51.872Z,65.43
2019-03-09T12:28:57.436Z,65.02
2019-03-09T12:30:03.904Z,65.05
2019-03-09T12:31:08.129Z,65.29
2019-03-09T12:32:13.781Z,65.71
2019-03-09T12:33:19.408Z,66.22
2019-03-09T12:34:25.388Z,66.20
2019-03-09T12:35:31.042Z,66.74
2019-03-09T12:36:36.667Z,66.87
2019-03-09T12:37:42.296Z,68.23
2019-03-09T12:38:47.887Z,67.61
2019-03-09T12:39:54.547Z,68.65
2019-03-09T12:41:00.179Z,69.98
2019-03-09T12:42:05.783Z,70.27
2019-03-09T12:43:11.414Z,71.40
2019-03-09T12:44:17.015Z,70.45
2019-03-09T12:45:22.342Z,68.67
2019-03-09T12:46:28.019Z,69.24
2019-03-09T12:47:33.663Z,70.53
2019-03-09T12:48:39.251Z,71.96
2019-03-09T12:49:44.917Z,73.89
2019-03-09T12:50:51.137Z,75.78
2019-03-09T12:51:58.326Z,75.57
2019-03-09T12:53:03.899Z,74.83
2019-03-09T12:54:09.522Z,74.74
2019-03-09T12:55:15.448Z,75.55
2019-03-09T12:56:20.680Z,75.53
2019-03-09T12:57:26.265Z,72.97
2019-03-09T12:58:31.923Z,73.34
2019-03-09T12:59:37.532Z,72.52
2019-03-09T13:00:43.166Z,71.71
2019-03-09T13:01:48.745Z,71.34
2019-03-09T13:02:54.385Z,71.21
2019-03-09T13:04:00.021Z,70.04
2019-03-09T13:05:04.892Z,70.96
2019-03-09T13:06:09.827Z,69.29
2019-03-09T13:07:16.863Z,68.78
2019-03-09T13:08:23.541Z,70.23
2019-03-09T13:09:28.088Z,69.46
2019-03-09T13:10:33.066Z,68.86
2019-03-09T13:11:38.274Z,68.99
2019-03-09T13:12:43.885Z,68.86
2019-03-09T13:13:49.474Z,68.52
2019-03-09T13:14:55.151Z,69.15
2019-03-09T13:16:00.793Z,68.73
2019-03-09T13:17:06.063Z,68.69
2019-03-09T13:18:11.666Z,68.82
2019-03-09T13:19:17.269Z,68.79
2019-03-09T13:20:23.401Z,68.74
2019-03-09T13:21:29.046Z,67.68
2019-03-09T13:22:34.661Z,67.36
2019-03-09T13:23:40.256Z,65.99
2019-03-09T13:24:45.834Z,66.31
2019-03-09T13:25:51.482Z,66.53
2019-03-09T13:26:57.176Z,65.11
2019-03-09T13:28:02.833Z,63.73
2019-03-09T13:29:08.469Z,63.50
2019-03-09T13:30:14.953Z,62.87
2019-03-09T13:31:20.612Z,61.94
2019-03-09T13:32:26.212Z,61.96
2019-03-09T13:33:31.943Z,61.68
2019-03-09T13:34:37.608Z,61.53
2019-03-09T13:35:42.691Z,61.21
2019-03-09T13:36:48.334Z,60.58
2019-03-09T13:37:54.072Z,60.43
2019-03-09T13:38:59.668Z,60.73
2019-03-09T13:40:04.725Z,60.62
2019-03-09T13:41:11.476Z,60.63
2019-03-09T13:42:18.923Z,61.24
2019-03-09T13:43:24.523Z,61.77
2019-03-09T13:44:30.955Z,62.07
2019-03-09T13:45:36.794Z,62.92
2019-03-09T13:46:42.503Z,63.52
2019-03-09T13:47:48.200Z,63.27
2019-03-09T13:48:53.841Z,63.70
2019-03-09T13:49:59.444Z,63.93
2019-03-09T13:51:05.117Z,63.67
2019-03-09T13:52:10.842Z,63.92
2019-03-09T13:53:16.667Z,63.71
2019-03-09T13:54:22.329Z,62.79
2019-03-09T13:55:28.137Z,61.73
2019-03-09T13:56:33.904Z,61.94
2019-03-09T13:57:40.470Z,62.65
2019-03-09T13:58:46.180Z,61.24
2019-03-09T13:59:51.838Z,60.58
2019-03-09T14:00:57.611Z,61.16
2019-03-09T14:02:03.216Z,61.03
2019-03-09T14:03:09.044Z,60.66
2019-03-09T14:04:14.764Z,60.43
2019-03-09T14:05:20.081Z,60.38
2019-03-09T14:06:25.717Z,60.70
2019-03-09T14:07:32.411Z,60.80